Weather at Az Zaqaziq

Public forecast

Using degrees Celsius for public forecast. Weather courtesy of forecast.io.

Closest aviation weather report (METAR) to Az Zaqaziq

Closest report is Cairo International Airport, 31.4 nm (58.2 km) SSW. Retrieved 2021/01/17 20:30 UTC (0 seconds ago):

HECA 172030Z 24008KT 6000 SCT025 BKN030 15/09 Q1018 NOSIG

Closest aviation forecast (TAF) to Az Zaqaziq

Closest forecast is Cairo International Airport, 31.4 nm (58.2 km) SSW. Retrieved 2021/01/17 18:40 UTC (2 hours ago):

TAF HECA 171700Z 1718/1824 26015G25KT 6000 SCT025 BKN030 TEMPO 1718/1806 4000 -RA BKN025